sensor_id;sensor_type;location;lat;lon;timestamp;P1;durP1;ratioP1;P2;durP2;ratioP2
20505;SDS011;10411;48.148;7.704;2022-07-06T00:00:33;15.13;;;14.20;;
20505;SDS011;10411;48.148;7.704;2022-07-06T00:02:59;16.40;;;15.40;;
20505;SDS011;10411;48.148;7.704;2022-07-06T00:05:25;15.73;;;14.63;;
20505;SDS011;10411;48.148;7.704;2022-07-06T00:07:51;15.10;;;14.30;;
20505;SDS011;10411;48.148;7.704;2022-07-06T00:10:17;16.67;;;15.50;;
20505;SDS011;10411;48.148;7.704;2022-07-06T00:12:43;15.67;;;14.50;;
20505;SDS011;10411;48.148;7.704;2022-07-06T00:15:09;15.53;;;14.43;;
20505;SDS011;10411;48.148;7.704;2022-07-06T00:17:35;15.53;;;14.53;;
20505;SDS011;10411;48.148;7.704;2022-07-06T00:20:01;15.60;;;14.30;;
20505;SDS011;10411;48.148;7.704;2022-07-06T00:22:27;15.87;;;14.53;;
20505;SDS011;10411;48.148;7.704;2022-07-06T00:24:53;16.37;;;15.13;;
20505;SDS011;10411;48.148;7.704;2022-07-06T00:27:19;15.90;;;14.67;;
20505;SDS011;10411;48.148;7.704;2022-07-06T00:29:48;16.20;;;15.30;;
20505;SDS011;10411;48.148;7.704;2022-07-06T00:32:14;15.17;;;14.17;;
20505;SDS011;10411;48.148;7.704;2022-07-06T00:34:40;15.30;;;14.17;;
20505;SDS011;10411;48.148;7.704;2022-07-06T00:37:06;15.57;;;14.70;;
20505;SDS011;10411;48.148;7.704;2022-07-06T00:39:32;15.20;;;14.20;;
20505;SDS011;10411;48.148;7.704;2022-07-06T00:41:58;14.67;;;13.77;;
20505;SDS011;10411;48.148;7.704;2022-07-06T00:44:24;14.73;;;13.90;;
20505;SDS011;10411;48.148;7.704;2022-07-06T00:46:50;15.00;;;14.03;;
20505;SDS011;10411;48.148;7.704;2022-07-06T00:49:16;15.17;;;14.23;;
20505;SDS011;10411;48.148;7.704;2022-07-06T00:52:01;15.73;;;14.63;;
20505;SDS011;10411;48.148;7.704;2022-07-06T00:54:28;15.77;;;14.60;;
20505;SDS011;10411;48.148;7.704;2022-07-06T00:56:55;15.37;;;14.37;;
20505;SDS011;10411;48.148;7.704;2022-07-06T00:59:22;15.57;;;14.57;;
20505;SDS011;10411;48.148;7.704;2022-07-06T01:01:48;14.93;;;14.13;;
20505;SDS011;10411;48.148;7.704;2022-07-06T01:04:14;15.00;;;14.20;;
20505;SDS011;10411;48.148;7.704;2022-07-06T01:06:40;15.60;;;14.70;;
20505;SDS011;10411;48.148;7.704;2022-07-06T01:09:06;15.10;;;14.20;;
20505;SDS011;10411;48.148;7.704;2022-07-06T01:11:32;15.10;;;14.20;;
20505;SDS011;10411;48.148;7.704;2022-07-06T01:14:00;15.10;;;14.30;;
20505;SDS011;10411;48.148;7.704;2022-07-06T01:16:26;15.77;;;14.50;;
20505;SDS011;10411;48.148;7.704;2022-07-06T01:18:52;16.37;;;15.17;;
20505;SDS011;10411;48.148;7.704;2022-07-06T01:21:18;15.53;;;14.53;;
20505;SDS011;10411;48.148;7.704;2022-07-06T01:23:45;15.40;;;14.50;;
20505;SDS011;10411;48.148;7.704;2022-07-06T01:26:12;16.30;;;14.97;;
20505;SDS011;10411;48.148;7.704;2022-07-06T01:28:38;15.97;;;15.07;;
20505;SDS011;10411;48.148;7.704;2022-07-06T01:31:04;16.03;;;15.03;;
20505;SDS011;10411;48.148;7.704;2022-07-06T01:33:30;16.07;;;15.03;;
20505;SDS011;10411;48.148;7.704;2022-07-06T01:35:57;16.13;;;15.13;;
20505;SDS011;10411;48.148;7.704;2022-07-06T01:38:22;15.60;;;14.60;;
20505;SDS011;10411;48.148;7.704;2022-07-06T01:40:48;15.87;;;14.73;;
20505;SDS011;10411;48.148;7.704;2022-07-06T01:43:14;15.90;;;14.77;;
20505;SDS011;10411;48.148;7.704;2022-07-06T01:45:40;16.20;;;15.10;;
20505;SDS011;10411;48.148;7.704;2022-07-06T01:48:06;16.20;;;15.20;;
20505;SDS011;10411;48.148;7.704;2022-07-06T01:50:32;15.40;;;14.50;;
20505;SDS011;10411;48.148;7.704;2022-07-06T01:53:01;15.70;;;14.40;;
20505;SDS011;10411;48.148;7.704;2022-07-06T01:55:27;16.10;;;14.73;;
20505;SDS011;10411;48.148;7.704;2022-07-06T01:57:53;15.37;;;14.27;;
20505;SDS011;10411;48.148;7.704;2022-07-06T04:36:22;15.40;;;14.40;;
20505;SDS011;10411;48.148;7.704;2022-07-06T04:38:48;15.87;;;14.83;;
20505;SDS011;10411;48.148;7.704;2022-07-06T04:41:14;15.83;;;14.87;;
20505;SDS011;10411;48.148;7.704;2022-07-06T04:49:41;16.47;;;15.47;;
20505;SDS011;10411;48.148;7.704;2022-07-06T04:52:07;15.90;;;14.60;;
20505;SDS011;10411;48.148;7.704;2022-07-06T06:22:18;15.35;;;14.13;;
20505;SDS011;10411;48.148;7.704;2022-07-06T06:24:44;22.85;;;14.90;;
20505;SDS011;10411;48.148;7.704;2022-07-06T06:27:11;14.65;;;13.77;;
20505;SDS011;10411;48.148;7.704;2022-07-06T06:42:27;15.32;;;14.13;;
20505;SDS011;10411;48.148;7.704;2022-07-06T06:44:59;15.60;;;14.13;;
20505;SDS011;10411;48.148;7.704;2022-07-06T06:47:25;13.80;;;12.80;;
20505;SDS011;10411;48.148;7.704;2022-07-06T06:49:51;13.68;;;12.38;;
20505;SDS011;10411;48.148;7.704;2022-07-06T06:52:23;13.52;;;12.50;;
20505;SDS011;10411;48.148;7.704;2022-07-06T06:54:49;14.57;;;13.30;;
20505;SDS011;10411;48.148;7.704;2022-07-06T06:57:15;12.75;;;11.80;;
20505;SDS011;10411;48.148;7.704;2022-07-06T06:59:41;12.38;;;11.68;;
20505;SDS011;10411;48.148;7.704;2022-07-06T07:02:07;16.75;;;15.63;;
20505;SDS011;10411;48.148;7.704;2022-07-06T07:04:33;18.20;;;16.75;;
20505;SDS011;10411;48.148;7.704;2022-07-06T07:09:40;17.48;;;15.95;;
20505;SDS011;10411;48.148;7.704;2022-07-06T07:12:09;15.90;;;14.75;;
20505;SDS011;10411;48.148;7.704;2022-07-06T07:14:36;17.52;;;15.50;;
20505;SDS011;10411;48.148;7.704;2022-07-06T07:17:06;14.77;;;13.95;;
20505;SDS011;10411;48.148;7.704;2022-07-06T07:19:32;15.60;;;14.45;;
20505;SDS011;10411;48.148;7.704;2022-07-06T07:21:58;15.68;;;14.45;;
20505;SDS011;10411;48.148;7.704;2022-07-06T07:24:24;14.82;;;13.70;;
20505;SDS011;10411;48.148;7.704;2022-07-06T07:26:50;15.45;;;14.35;;
20505;SDS011;10411;48.148;7.704;2022-07-06T07:29:16;14.40;;;13.35;;
20505;SDS011;10411;48.148;7.704;2022-07-06T07:31:54;14.82;;;13.73;;
20505;SDS011;10411;48.148;7.704;2022-07-06T07:37:37;14.20;;;13.05;;
20505;SDS011;10411;48.148;7.704;2022-07-06T07:40:05;14.13;;;13.15;;
20505;SDS011;10411;48.148;7.704;2022-07-06T07:45:42;14.35;;;13.35;;
20505;SDS011;10411;48.148;7.704;2022-07-06T07:48:13;13.82;;;12.85;;
20505;SDS011;10411;48.148;7.704;2022-07-06T07:50:42;16.15;;;15.15;;
20505;SDS011;10411;48.148;7.704;2022-07-06T07:53:17;15.93;;;14.93;;
20505;SDS011;10411;48.148;7.704;2022-07-06T07:55:44;16.33;;;15.10;;
20505;SDS011;10411;48.148;7.704;2022-07-06T07:58:09;16.13;;;15.13;;
20505;SDS011;10411;48.148;7.704;2022-07-06T08:12:54;17.48;;;16.15;;
20505;SDS011;10411;48.148;7.704;2022-07-06T08:25:04;17.55;;;16.45;;
20505;SDS011;10411;48.148;7.704;2022-07-06T08:27:39;17.75;;;16.33;;
20505;SDS011;10411;48.148;7.704;2022-07-06T08:30:20;17.92;;;16.63;;
20505;SDS011;10411;48.148;7.704;2022-07-06T08:32:51;17.00;;;15.73;;
20505;SDS011;10411;48.148;7.704;2022-07-06T08:35:24;17.70;;;16.17;;
20505;SDS011;10411;48.148;7.704;2022-07-06T08:37:50;16.85;;;15.77;;
20505;SDS011;10411;48.148;7.704;2022-07-06T08:46:14;17.55;;;16.45;;
20505;SDS011;10411;48.148;7.704;2022-07-06T08:48:41;18.20;;;16.77;;
20505;SDS011;10411;48.148;7.704;2022-07-06T08:51:07;17.55;;;16.33;;
20505;SDS011;10411;48.148;7.704;2022-07-06T08:53:33;17.92;;;16.40;;
20505;SDS011;10411;48.148;7.704;2022-07-06T08:56:00;16.95;;;14.65;;
20505;SDS011;10411;48.148;7.704;2022-07-06T08:58:27;16.08;;;14.98;;
20505;SDS011;10411;48.148;7.704;2022-07-06T09:00:56;18.30;;;16.50;;
20505;SDS011;10411;48.148;7.704;2022-07-06T09:03:23;18.20;;;16.88;;
20505;SDS011;10411;48.148;7.704;2022-07-06T09:05:50;20.38;;;18.73;;
20505;SDS011;10411;48.148;7.704;2022-07-06T09:08:16;21.30;;;19.63;;
20505;SDS011;10411;48.148;7.704;2022-07-06T09:10:43;20.65;;;19.20;;
20505;SDS011;10411;48.148;7.704;2022-07-06T09:13:09;21.08;;;19.38;;
20505;SDS011;10411;48.148;7.704;2022-07-06T09:15:36;19.75;;;18.52;;
20505;SDS011;10411;48.148;7.704;2022-07-06T09:18:04;19.73;;;18.08;;
20505;SDS011;10411;48.148;7.704;2022-07-06T09:47:20;18.17;;;17.02;;
20505;SDS011;10411;48.148;7.704;2022-07-06T09:49:51;18.92;;;17.63;;
20505;SDS011;10411;48.148;7.704;2022-07-06T09:52:21;17.55;;;16.45;;
20505;SDS011;10411;48.148;7.704;2022-07-06T09:54:48;18.35;;;17.05;;
20505;SDS011;10411;48.148;7.704;2022-07-06T09:57:14;16.55;;;15.35;;
20505;SDS011;10411;48.148;7.704;2022-07-06T09:59:41;16.55;;;15.57;;
20505;SDS011;10411;48.148;7.704;2022-07-06T10:02:10;17.55;;;16.38;;
20505;SDS011;10411;48.148;7.704;2022-07-06T10:04:39;19.45;;;17.50;;
20505;SDS011;10411;48.148;7.704;2022-07-06T10:38:06;18.63;;;17.38;;
20505;SDS011;10411;48.148;7.704;2022-07-06T10:40:33;19.15;;;17.67;;
20505;SDS011;10411;48.148;7.704;2022-07-06T10:43:18;17.83;;;16.58;;
20505;SDS011;10411;48.148;7.704;2022-07-06T10:53:56;18.57;;;17.47;;
20505;SDS011;10411;48.148;7.704;2022-07-06T10:56:40;18.93;;;17.43;;
20505;SDS011;10411;48.148;7.704;2022-07-06T10:59:09;17.97;;;16.83;;
20505;SDS011;10411;48.148;7.704;2022-07-06T11:01:36;18.43;;;17.23;;
20505;SDS011;10411;48.148;7.704;2022-07-06T11:06:38;17.53;;;16.43;;
20505;SDS011;10411;48.148;7.704;2022-07-06T11:09:09;19.03;;;17.40;;
20505;SDS011;10411;48.148;7.704;2022-07-06T11:11:40;19.13;;;17.63;;
20505;SDS011;10411;48.148;7.704;2022-07-06T11:14:16;19.00;;;17.67;;
20505;SDS011;10411;48.148;7.704;2022-07-06T11:25:45;18.63;;;17.23;;
20505;SDS011;10411;48.148;7.704;2022-07-06T11:28:22;17.97;;;16.40;;
20505;SDS011;10411;48.148;7.704;2022-07-06T11:53:14;18.03;;;16.53;;
20505;SDS011;10411;48.148;7.704;2022-07-06T11:55:46;17.77;;;16.67;;
20505;SDS011;10411;48.148;7.704;2022-07-06T11:58:33;18.30;;;17.10;;
20505;SDS011;10411;48.148;7.704;2022-07-06T12:01:07;18.23;;;16.47;;
20505;SDS011;10411;48.148;7.704;2022-07-06T12:07:01;18.00;;;16.40;;
20505;SDS011;10411;48.148;7.704;2022-07-06T12:09:50;17.80;;;16.70;;
20505;SDS011;10411;48.148;7.704;2022-07-06T12:12:31;18.20;;;16.63;;
20505;SDS011;10411;48.148;7.704;2022-07-06T12:15:06;17.43;;;16.40;;
20505;SDS011;10411;48.148;7.704;2022-07-06T12:17:33;18.33;;;17.03;;
20505;SDS011;10411;48.148;7.704;2022-07-06T12:20:10;17.77;;;16.67;;
20505;SDS011;10411;48.148;7.704;2022-07-06T12:22:37;18.33;;;17.10;;
20505;SDS011;10411;48.148;7.704;2022-07-06T12:25:09;17.87;;;16.87;;
20505;SDS011;10411;48.148;7.704;2022-07-06T12:27:42;18.10;;;16.70;;
20505;SDS011;10411;48.148;7.704;2022-07-06T12:30:09;17.47;;;16.37;;
20505;SDS011;10411;48.148;7.704;2022-07-06T12:38:45;17.00;;;15.70;;
20505;SDS011;10411;48.148;7.704;2022-07-06T12:44:05;16.87;;;15.83;;
20505;SDS011;10411;48.148;7.704;2022-07-06T12:52:50;17.10;;;15.70;;
20505;SDS011;10411;48.148;7.704;2022-07-06T12:59:12;18.95;;;17.60;;
20505;SDS011;10411;48.148;7.704;2022-07-06T13:02:56;16.90;;;15.90;;
20505;SDS011;10411;48.148;7.704;2022-07-06T13:08:24;17.40;;;16.10;;
20505;SDS011;10411;48.148;7.704;2022-07-06T13:14:01;16.60;;;15.60;;
20505;SDS011;10411;48.148;7.704;2022-07-06T13:16:39;18.20;;;16.87;;
20505;SDS011;10411;48.148;7.704;2022-07-06T13:19:18;19.67;;;18.03;;
20505;SDS011;10411;48.148;7.704;2022-07-06T13:22:06;17.47;;;16.40;;
20505;SDS011;10411;48.148;7.704;2022-07-06T13:24:50;17.03;;;15.97;;
20505;SDS011;10411;48.148;7.704;2022-07-06T13:30:07;16.67;;;15.43;;
20505;SDS011;10411;48.148;7.704;2022-07-06T13:36:07;17.00;;;15.83;;
20505;SDS011;10411;48.148;7.704;2022-07-06T13:38:38;17.33;;;16.30;;
20505;SDS011;10411;48.148;7.704;2022-07-06T13:49:51;18.07;;;16.70;;
20505;SDS011;10411;48.148;7.704;2022-07-06T13:52:32;16.80;;;15.40;;
20505;SDS011;10411;48.148;7.704;2022-07-06T13:55:02;16.87;;;15.97;;
20505;SDS011;10411;48.148;7.704;2022-07-06T13:57:32;18.30;;;16.93;;
20505;SDS011;10411;48.148;7.704;2022-07-06T14:00:05;18.13;;;16.80;;
20505;SDS011;10411;48.148;7.704;2022-07-06T14:02:37;17.53;;;16.53;;
20505;SDS011;10411;48.148;7.704;2022-07-06T14:05:09;18.17;;;16.47;;
20505;SDS011;10411;48.148;7.704;2022-07-06T14:07:37;16.77;;;15.73;;
20505;SDS011;10411;48.148;7.704;2022-07-06T14:32:10;17.93;;;16.33;;
20505;SDS011;10411;48.148;7.704;2022-07-06T14:34:45;17.73;;;16.53;;
20505;SDS011;10411;48.148;7.704;2022-07-06T14:37:20;17.10;;;15.70;;
20505;SDS011;10411;48.148;7.704;2022-07-06T14:42:35;17.20;;;15.90;;
20505;SDS011;10411;48.148;7.704;2022-07-06T14:45:01;17.47;;;16.10;;
20505;SDS011;10411;48.148;7.704;2022-07-06T14:47:27;18.17;;;16.93;;
20505;SDS011;10411;48.148;7.704;2022-07-06T14:50:02;17.07;;;15.90;;
20505;SDS011;10411;48.148;7.704;2022-07-06T14:52:29;17.87;;;16.63;;
20505;SDS011;10411;48.148;7.704;2022-07-06T14:54:54;18.20;;;17.00;;
20505;SDS011;10411;48.148;7.704;2022-07-06T14:59:59;17.70;;;16.60;;
20505;SDS011;10411;48.148;7.704;2022-07-06T15:02:31;17.13;;;16.00;;
20505;SDS011;10411;48.148;7.704;2022-07-06T15:04:57;16.80;;;15.70;;
20505;SDS011;10411;48.148;7.704;2022-07-06T15:07:29;17.10;;;16.03;;
20505;SDS011;10411;48.148;7.704;2022-07-06T15:10:14;17.80;;;16.30;;
20505;SDS011;10411;48.148;7.704;2022-07-06T15:12:53;16.67;;;15.67;;
20505;SDS011;10411;48.148;7.704;2022-07-06T15:15:22;18.00;;;16.70;;
20505;SDS011;10411;48.148;7.704;2022-07-06T15:18:10;17.20;;;15.80;;
20505;SDS011;10411;48.148;7.704;2022-07-06T15:20:46;17.03;;;15.93;;
20505;SDS011;10411;48.148;7.704;2022-07-06T15:23:23;16.33;;;15.33;;
20505;SDS011;10411;48.148;7.704;2022-07-06T15:25:52;16.57;;;15.47;;
20505;SDS011;10411;48.148;7.704;2022-07-06T17:34:56;14.83;;;13.97;;
20505;SDS011;10411;48.148;7.704;2022-07-06T17:37:42;15.37;;;14.37;;
20505;SDS011;10411;48.148;7.704;2022-07-06T17:40:14;18.50;;;17.23;;
20505;SDS011;10411;48.148;7.704;2022-07-06T17:45:26;18.53;;;17.33;;
20505;SDS011;10411;48.148;7.704;2022-07-06T17:48:09;16.20;;;15.10;;
20505;SDS011;10411;48.148;7.704;2022-07-06T17:58:59;15.80;;;14.53;;
20505;SDS011;10411;48.148;7.704;2022-07-06T18:04:39;15.57;;;14.10;;
20505;SDS011;10411;48.148;7.704;2022-07-06T18:07:05;18.73;;;17.23;;
20505;SDS011;10411;48.148;7.704;2022-07-06T18:19:33;17.40;;;16.20;;
20505;SDS011;10411;48.148;7.704;2022-07-06T18:22:09;16.70;;;15.60;;
20505;SDS011;10411;48.148;7.704;2022-07-06T18:27:41;15.40;;;14.50;;
20505;SDS011;10411;48.148;7.704;2022-07-06T18:30:07;14.63;;;13.93;;
20505;SDS011;10411;48.148;7.704;2022-07-06T18:32:33;15.63;;;14.60;;
20505;SDS011;10411;48.148;7.704;2022-07-06T18:34:59;14.50;;;13.70;;
20505;SDS011;10411;48.148;7.704;2022-07-06T18:37:29;15.50;;;14.20;;
20505;SDS011;10411;48.148;7.704;2022-07-06T18:39:58;15.60;;;14.40;;
20505;SDS011;10411;48.148;7.704;2022-07-06T18:42:23;14.93;;;13.60;;
20505;SDS011;10411;48.148;7.704;2022-07-06T18:44:49;14.77;;;13.97;;
20505;SDS011;10411;48.148;7.704;2022-07-06T18:47:15;14.90;;;14.00;;
20505;SDS011;10411;48.148;7.704;2022-07-06T18:49:46;14.53;;;13.53;;
20505;SDS011;10411;48.148;7.704;2022-07-06T18:52:15;15.57;;;14.37;;
20505;SDS011;10411;48.148;7.704;2022-07-06T18:54:41;16.93;;;15.40;;
20505;SDS011;10411;48.148;7.704;2022-07-06T18:57:07;19.20;;;17.63;;
20505;SDS011;10411;48.148;7.704;2022-07-06T18:59:33;16.67;;;15.57;;
20505;SDS011;10411;48.148;7.704;2022-07-06T19:01:58;15.37;;;14.40;;
20505;SDS011;10411;48.148;7.704;2022-07-06T19:04:24;15.00;;;14.00;;
20505;SDS011;10411;48.148;7.704;2022-07-06T19:06:50;15.53;;;14.63;;
20505;SDS011;10411;48.148;7.704;2022-07-06T19:09:16;15.37;;;14.33;;
20505;SDS011;10411;48.148;7.704;2022-07-06T19:11:42;15.60;;;14.60;;
20505;SDS011;10411;48.148;7.704;2022-07-06T19:14:08;14.93;;;13.90;;
20505;SDS011;10411;48.148;7.704;2022-07-06T19:16:34;14.77;;;13.97;;
20505;SDS011;10411;48.148;7.704;2022-07-06T19:19:01;15.07;;;14.00;;
20505;SDS011;10411;48.148;7.704;2022-07-06T19:21:38;14.70;;;13.90;;
20505;SDS011;10411;48.148;7.704;2022-07-06T19:24:18;14.30;;;13.40;;
20505;SDS011;10411;48.148;7.704;2022-07-06T19:26:51;16.83;;;15.60;;
20505;SDS011;10411;48.148;7.704;2022-07-06T19:29:27;16.10;;;15.00;;
20505;SDS011;10411;48.148;7.704;2022-07-06T19:31:54;16.60;;;15.40;;
20505;SDS011;10411;48.148;7.704;2022-07-06T19:34:46;16.63;;;15.53;;
20505;SDS011;10411;48.148;7.704;2022-07-06T19:37:12;16.83;;;15.70;;
20505;SDS011;10411;48.148;7.704;2022-07-06T19:39:39;16.33;;;15.10;;
20505;SDS011;10411;48.148;7.704;2022-07-06T19:42:05;16.87;;;15.70;;
20505;SDS011;10411;48.148;7.704;2022-07-06T19:44:31;16.17;;;15.20;;
20505;SDS011;10411;48.148;7.704;2022-07-06T19:46:58;16.23;;;15.20;;
20505;SDS011;10411;48.148;7.704;2022-07-06T19:49:24;16.37;;;15.47;;
20505;SDS011;10411;48.148;7.704;2022-07-06T19:51:55;16.53;;;15.23;;
20505;SDS011;10411;48.148;7.704;2022-07-06T19:57:31;16.03;;;15.07;;
20505;SDS011;10411;48.148;7.704;2022-07-06T19:59:57;16.30;;;15.20;;
20505;SDS011;10411;48.148;7.704;2022-07-06T20:02:23;16.43;;;15.20;;
20505;SDS011;10411;48.148;7.704;2022-07-06T20:04:49;16.10;;;14.80;;
20505;SDS011;10411;48.148;7.704;2022-07-06T20:07:16;17.30;;;16.10;;
20505;SDS011;10411;48.148;7.704;2022-07-06T20:09:42;16.63;;;15.67;;
20505;SDS011;10411;48.148;7.704;2022-07-06T20:12:08;16.27;;;15.17;;
20505;SDS011;10411;48.148;7.704;2022-07-06T20:14:34;16.23;;;15.23;;
20505;SDS011;10411;48.148;7.704;2022-07-06T20:17:00;16.53;;;15.50;;
20505;SDS011;10411;48.148;7.704;2022-07-06T20:19:26;16.30;;;15.30;;
20505;SDS011;10411;48.148;7.704;2022-07-06T20:21:52;15.57;;;14.57;;
20505;SDS011;10411;48.148;7.704;2022-07-06T20:24:18;16.63;;;15.37;;
20505;SDS011;10411;48.148;7.704;2022-07-06T20:26:44;16.50;;;15.47;;
20505;SDS011;10411;48.148;7.704;2022-07-06T20:29:14;16.20;;;15.00;;
20505;SDS011;10411;48.148;7.704;2022-07-06T20:31:40;16.57;;;15.47;;
20505;SDS011;10411;48.148;7.704;2022-07-06T20:34:06;15.70;;;14.90;;
20505;SDS011;10411;48.148;7.704;2022-07-06T20:36:33;16.10;;;15.10;;
20505;SDS011;10411;48.148;7.704;2022-07-06T20:38:59;20.77;;;19.23;;
20505;SDS011;10411;48.148;7.704;2022-07-06T20:41:27;22.40;;;20.30;;
20505;SDS011;10411;48.148;7.704;2022-07-06T20:43:53;19.47;;;17.93;;
20505;SDS011;10411;48.148;7.704;2022-07-06T20:46:19;16.47;;;15.37;;
20505;SDS011;10411;48.148;7.704;2022-07-06T20:48:45;15.50;;;14.50;;
20505;SDS011;10411;48.148;7.704;2022-07-06T20:51:11;15.90;;;14.70;;
20505;SDS011;10411;48.148;7.704;2022-07-06T20:53:37;15.30;;;14.40;;
20505;SDS011;10411;48.148;7.704;2022-07-06T20:56:06;16.37;;;15.17;;
20505;SDS011;10411;48.148;7.704;2022-07-06T20:58:32;15.73;;;14.83;;
20505;SDS011;10411;48.148;7.704;2022-07-06T21:00:58;16.90;;;15.60;;
20505;SDS011;10411;48.148;7.704;2022-07-06T21:03:24;16.07;;;15.10;;
20505;SDS011;10411;48.148;7.704;2022-07-06T21:05:50;15.93;;;15.03;;
20505;SDS011;10411;48.148;7.704;2022-07-06T21:08:16;16.00;;;14.97;;
20505;SDS011;10411;48.148;7.704;2022-07-06T21:10:42;16.03;;;14.87;;
20505;SDS011;10411;48.148;7.704;2022-07-06T21:13:08;15.77;;;14.80;;
20505;SDS011;10411;48.148;7.704;2022-07-06T21:15:34;15.93;;;14.83;;
20505;SDS011;10411;48.148;7.704;2022-07-06T21:18:00;16.70;;;15.47;;
20505;SDS011;10411;48.148;7.704;2022-07-06T21:20:26;15.50;;;14.37;;
20505;SDS011;10411;48.148;7.704;2022-07-06T21:22:52;16.43;;;15.03;;
20505;SDS011;10411;48.148;7.704;2022-07-06T21:25:18;16.63;;;15.20;;
20505;SDS011;10411;48.148;7.704;2022-07-06T21:27:44;16.27;;;14.90;;
20505;SDS011;10411;48.148;7.704;2022-07-06T21:30:10;15.87;;;14.77;;
20505;SDS011;10411;48.148;7.704;2022-07-06T21:32:36;15.90;;;14.80;;
20505;SDS011;10411;48.148;7.704;2022-07-06T21:35:01;15.67;;;14.73;;
20505;SDS011;10411;48.148;7.704;2022-07-06T21:37:27;15.90;;;15.00;;
20505;SDS011;10411;48.148;7.704;2022-07-06T21:39:54;16.40;;;15.50;;
20505;SDS011;10411;48.148;7.704;2022-07-06T21:42:20;16.40;;;15.20;;
20505;SDS011;10411;48.148;7.704;2022-07-06T21:44:54;16.27;;;15.37;;
20505;SDS011;10411;48.148;7.704;2022-07-06T21:47:23;16.30;;;15.27;;
20505;SDS011;10411;48.148;7.704;2022-07-06T21:49:49;16.50;;;15.50;;
20505;SDS011;10411;48.148;7.704;2022-07-06T21:52:15;16.37;;;15.37;;
20505;SDS011;10411;48.148;7.704;2022-07-06T21:54:49;16.27;;;15.30;;
20505;SDS011;10411;48.148;7.704;2022-07-06T21:57:15;15.87;;;14.97;;
20505;SDS011;10411;48.148;7.704;2022-07-06T21:59:41;16.40;;;15.30;;
20505;SDS011;10411;48.148;7.704;2022-07-06T22:02:07;15.80;;;14.60;;
20505;SDS011;10411;48.148;7.704;2022-07-06T22:04:35;15.33;;;14.50;;
20505;SDS011;10411;48.148;7.704;2022-07-06T22:07:01;15.13;;;14.13;;
20505;SDS011;10411;48.148;7.704;2022-07-06T22:09:27;16.00;;;14.90;;
20505;SDS011;10411;48.148;7.704;2022-07-06T22:11:55;15.20;;;14.30;;
20505;SDS011;10411;48.148;7.704;2022-07-06T22:14:21;16.13;;;15.10;;
20505;SDS011;10411;48.148;7.704;2022-07-06T22:16:47;15.83;;;14.70;;
20505;SDS011;10411;48.148;7.704;2022-07-06T22:19:13;15.77;;;14.67;;
20505;SDS011;10411;48.148;7.704;2022-07-06T22:21:42;15.27;;;14.27;;
20505;SDS011;10411;48.148;7.704;2022-07-06T22:24:10;15.47;;;14.60;;
20505;SDS011;10411;48.148;7.704;2022-07-06T22:26:36;15.30;;;14.40;;
20505;SDS011;10411;48.148;7.704;2022-07-06T22:29:03;15.93;;;14.67;;
20505;SDS011;10411;48.148;7.704;2022-07-06T22:31:29;15.50;;;14.53;;
20505;SDS011;10411;48.148;7.704;2022-07-06T22:33:55;16.07;;;14.77;;
20505;SDS011;10411;48.148;7.704;2022-07-06T22:36:21;15.50;;;14.50;;
20505;SDS011;10411;48.148;7.704;2022-07-06T22:38:52;15.93;;;14.93;;
20505;SDS011;10411;48.148;7.704;2022-07-06T22:41:18;15.73;;;14.83;;
20505;SDS011;10411;48.148;7.704;2022-07-06T22:43:45;15.37;;;14.43;;
20505;SDS011;10411;48.148;7.704;2022-07-06T22:46:11;15.10;;;14.03;;
20505;SDS011;10411;48.148;7.704;2022-07-06T22:48:41;15.40;;;14.50;;
20505;SDS011;10411;48.148;7.704;2022-07-06T22:51:07;15.00;;;14.00;;
20505;SDS011;10411;48.148;7.704;2022-07-06T22:53:33;14.90;;;14.00;;
20505;SDS011;10411;48.148;7.704;2022-07-06T22:55:59;15.93;;;14.93;;
20505;SDS011;10411;48.148;7.704;2022-07-06T22:58:26;15.60;;;14.70;;
20505;SDS011;10411;48.148;7.704;2022-07-06T23:00:55;15.83;;;14.30;;
20505;SDS011;10411;48.148;7.704;2022-07-06T23:03:21;15.60;;;14.50;;
20505;SDS011;10411;48.148;7.704;2022-07-06T23:05:47;15.50;;;14.60;;
20505;SDS011;10411;48.148;7.704;2022-07-06T23:08:14;16.37;;;15.17;;
20505;SDS011;10411;48.148;7.704;2022-07-06T23:10:40;16.03;;;14.93;;
20505;SDS011;10411;48.148;7.704;2022-07-06T23:13:06;16.37;;;14.80;;
20505;SDS011;10411;48.148;7.704;2022-07-06T23:15:32;15.87;;;14.97;;
20505;SDS011;10411;48.148;7.704;2022-07-06T23:17:59;15.10;;;14.10;;
20505;SDS011;10411;48.148;7.704;2022-07-06T23:20:26;15.43;;;14.50;;
20505;SDS011;10411;48.148;7.704;2022-07-06T23:22:52;15.07;;;14.17;;
20505;SDS011;10411;48.148;7.704;2022-07-06T23:25:18;15.60;;;14.70;;
20505;SDS011;10411;48.148;7.704;2022-07-06T23:27:44;15.03;;;14.17;;
20505;SDS011;10411;48.148;7.704;2022-07-06T23:30:10;15.50;;;14.60;;
20505;SDS011;10411;48.148;7.704;2022-07-06T23:32:36;15.50;;;14.50;;
20505;SDS011;10411;48.148;7.704;2022-07-06T23:35:03;15.63;;;14.63;;
20505;SDS011;10411;48.148;7.704;2022-07-06T23:37:29;15.97;;;14.77;;
20505;SDS011;10411;48.148;7.704;2022-07-06T23:39:55;15.73;;;14.83;;
20505;SDS011;10411;48.148;7.704;2022-07-06T23:42:21;16.20;;;14.90;;
20505;SDS011;10411;48.148;7.704;2022-07-06T23:44:49;16.33;;;15.20;;
20505;SDS011;10411;48.148;7.704;2022-07-06T23:47:18;16.33;;;14.93;;
20505;SDS011;10411;48.148;7.704;2022-07-06T23:49:47;15.80;;;14.80;;
20505;SDS011;10411;48.148;7.704;2022-07-06T23:52:13;15.60;;;14.60;;
20505;SDS011;10411;48.148;7.704;2022-07-06T23:54:39;15.57;;;14.70;;
20505;SDS011;10411;48.148;7.704;2022-07-06T23:57:05;15.20;;;14.30;;
20505;SDS011;10411;48.148;7.704;2022-07-06T23:59:31;15.60;;;14.50;;
